createdAt,value
2022-08-19T00:02:10.108Z,87.04
2022-08-19T00:04:37.810Z,84.73
2022-08-19T00:07:07.402Z,87.35
2022-08-19T00:09:34.995Z,87.47
2022-08-19T00:12:02.441Z,88.03
2022-08-19T00:14:32.765Z,88.35
2022-08-19T00:17:00.904Z,87.21
2022-08-19T00:19:28.493Z,85.32
2022-08-19T00:21:56.211Z,84.48
2022-08-19T00:24:24.380Z,84.71
2022-08-19T00:26:52.704Z,85.76
2022-08-19T00:29:22.228Z,84.62
2022-08-19T00:31:51.098Z,83.31
2022-08-19T00:34:18.421Z,82.98
2022-08-19T00:36:47.549Z,82.39
2022-08-19T00:39:17.667Z,81.70
2022-08-19T00:41:50.140Z,80.75
2022-08-19T00:44:27.215Z,80.50
2022-08-19T00:46:58.427Z,80.79
2022-08-19T00:49:47.106Z,80.80
2022-08-19T00:52:42.540Z,80.89
2022-08-19T00:55:12.931Z,80.67
2022-08-19T00:57:45.560Z,80.31
2022-08-19T01:00:19.489Z,80.94
2022-08-19T01:02:46.898Z,81.36
2022-08-19T01:05:29.654Z,82.35
2022-08-19T01:07:59.729Z,82.59
2022-08-19T01:10:36.537Z,81.32
2022-08-19T01:13:05.362Z,81.39
2022-08-19T01:15:43.330Z,82.02
2022-08-19T01:18:16.117Z,81.67
2022-08-19T01:20:43.791Z,81.33
2022-08-19T01:23:11.868Z,81.05
2022-08-19T01:25:50.866Z,80.37
2022-08-19T01:28:34.035Z,80.92
2022-08-19T01:31:01.726Z,79.78
2022-08-19T01:33:35.371Z,80.03
2022-08-19T01:36:34.423Z,80.76
2022-08-19T01:39:17.208Z,80.71
2022-08-19T01:41:44.661Z,80.28
2022-08-19T01:44:18.539Z,79.91
2022-08-19T01:46:49.405Z,81.86
2022-08-19T01:49:19.557Z,81.78
2022-08-19T01:51:47.487Z,80.88
2022-08-19T01:54:23.196Z,81.88
2022-08-19T01:57:09.590Z,83.74
2022-08-19T01:59:37.454Z,80.31
2022-08-19T02:02:09.837Z,79.11
2022-08-19T02:04:38.943Z,80.06
2022-08-19T02:07:07.418Z,80.24
2022-08-19T02:09:36.364Z,80.44
2022-08-19T02:12:05.569Z,83.18
2022-08-19T02:14:34.622Z,81.98
2022-08-19T02:17:02.026Z,80.99
2022-08-19T02:19:28.970Z,80.05
2022-08-19T02:21:56.241Z,82.91
2022-08-19T02:24:23.390Z,82.87
2022-08-19T02:26:50.425Z,83.12
2022-08-19T02:29:17.593Z,82.22
2022-08-19T02:31:44.916Z,81.88
2022-08-19T02:34:11.923Z,81.31
2022-08-19T02:36:42.503Z,80.38
2022-08-19T02:39:11.310Z,80.62
2022-08-19T02:41:38.289Z,81.70
2022-08-19T02:44:29.409Z,82.34
2022-08-19T02:46:53.537Z,82.34
2022-08-19T02:49:21.102Z,83.23
2022-08-19T02:51:48.799Z,81.88
2022-08-19T02:54:16.245Z,80.10
2022-08-19T02:56:45.622Z,84.30
2022-08-19T02:59:13.267Z,82.79
2022-08-19T03:01:42.702Z,83.35
2022-08-19T03:04:16.616Z,83.65
2022-08-19T03:06:47.118Z,82.00
2022-08-19T03:09:15.543Z,80.24
2022-08-19T03:11:42.963Z,79.88
2022-08-19T03:14:11.144Z,83.17
2022-08-19T03:16:51.976Z,85.95
2022-08-19T03:19:22.129Z,85.29
2022-08-19T03:21:49.986Z,81.01
2022-08-19T03:24:18.379Z,80.04
2022-08-19T03:26:49.982Z,81.43
2022-08-19T03:29:30.190Z,81.13
2022-08-19T03:32:01.899Z,81.02
2022-08-19T03:34:31.960Z,79.87
2022-08-19T03:37:05.307Z,81.18
2022-08-19T03:39:32.688Z,80.91
2022-08-19T03:42:05.160Z,81.22
2022-08-19T03:44:48.290Z,81.17
2022-08-19T03:47:17.449Z,80.47
2022-08-19T03:49:44.714Z,80.73
2022-08-19T03:52:12.485Z,82.24
2022-08-19T03:54:40.249Z,82.01
2022-08-19T03:57:08.201Z,82.08
2022-08-19T03:59:37.847Z,81.91
2022-08-19T04:02:11.630Z,84.46
2022-08-19T04:04:43.982Z,81.61
2022-08-19T04:07:16.861Z,80.95
2022-08-19T04:09:43.879Z,80.24
2022-08-19T04:12:10.955Z,79.46
2022-08-19T04:14:38.335Z,80.52
2022-08-19T04:17:06.019Z,80.56
2022-08-19T04:19:36.206Z,80.90
2022-08-19T04:22:05.046Z,80.81
2022-08-19T04:24:32.765Z,81.00
2022-08-19T04:27:02.442Z,81.32
2022-08-19T04:29:31.314Z,81.33
2022-08-19T04:31:59.948Z,81.93
2022-08-19T04:34:37.223Z,82.11
2022-08-19T04:37:25.263Z,82.03
2022-08-19T04:40:10.798Z,83.23
2022-08-19T04:42:40.445Z,83.67
2022-08-19T04:45:12.665Z,83.41
2022-08-19T04:47:49.148Z,80.96
2022-08-19T04:50:27.757Z,80.00
2022-08-19T04:52:56.499Z,79.94
2022-08-19T04:55:26.590Z,79.79
2022-08-19T04:57:55.614Z,80.37
2022-08-19T05:00:22.894Z,80.88
2022-08-19T05:02:50.266Z,81.81
2022-08-19T05:05:18.357Z,81.84
2022-08-19T05:07:45.564Z,82.52
2022-08-19T05:10:13.696Z,81.49
2022-08-19T05:12:40.887Z,82.58
2022-08-19T05:15:09.544Z,82.98
2022-08-19T05:17:38.858Z,82.83
2022-08-19T05:20:28.163Z,81.83
2022-08-19T05:22:55.340Z,81.13
2022-08-19T05:25:23.265Z,82.08
2022-08-19T05:27:50.472Z,79.90
2022-08-19T05:30:18.887Z,78.90
2022-08-19T05:33:01.456Z,79.90
2022-08-19T05:35:29.403Z,80.80
2022-08-19T05:38:02.183Z,79.01
2022-08-19T05:40:29.526Z,80.50
2022-08-19T05:42:56.956Z,84.11
2022-08-19T05:45:24.087Z,81.14
2022-08-19T05:47:51.054Z,83.30
2022-08-19T05:50:18.536Z,84.30
2022-08-19T05:52:50.208Z,84.30
2022-08-19T05:55:18.134Z,82.73
2022-08-19T05:57:45.072Z,81.20
2022-08-19T06:00:13.744Z,82.05
2022-08-19T06:02:41.914Z,81.33
2022-08-19T06:05:10.207Z,81.36
2022-08-19T06:07:39.711Z,81.64
2022-08-19T06:10:11.285Z,83.39
2022-08-19T06:12:39.488Z,83.07
2022-08-19T06:15:13.563Z,82.07
2022-08-19T06:17:42.889Z,82.96
2022-08-19T06:20:14.728Z,83.34
2022-08-19T06:22:50.823Z,82.36
2022-08-19T06:25:18.141Z,83.07
2022-08-19T06:28:13.366Z,82.20
2022-08-19T06:30:33.489Z,80.77
2022-08-19T06:33:00.471Z,81.65
2022-08-19T06:35:27.966Z,80.90
2022-08-19T06:37:55.610Z,80.80
2022-08-19T06:40:23.397Z,80.52
2022-08-19T06:42:54.224Z,80.32
2022-08-19T06:45:35.426Z,80.90
2022-08-19T06:48:03.911Z,84.23
2022-08-19T06:50:30.936Z,85.82
2022-08-19T06:52:57.929Z,84.79
2022-08-19T06:55:30.357Z,83.07
2022-08-19T06:58:04.737Z,81.96
2022-08-19T07:00:32.724Z,82.06
2022-08-19T07:03:04.811Z,81.52
2022-08-19T07:05:45.461Z,85.47
2022-08-19T07:08:14.877Z,82.60
2022-08-19T07:10:46.247Z,84.29
2022-08-19T07:13:13.391Z,84.90
2022-08-19T07:15:40.557Z,83.72
2022-08-19T07:18:07.541Z,84.26
2022-08-19T07:20:40.467Z,85.79
2022-08-19T07:23:09.920Z,85.63
2022-08-19T07:25:43.502Z,85.59
2022-08-19T07:28:19.666Z,85.33
2022-08-19T07:30:52.030Z,84.14
2022-08-19T07:33:20.413Z,80.66
2022-08-19T07:35:47.471Z,82.65
2022-08-19T07:38:16.606Z,82.95
2022-08-19T07:40:46.790Z,81.98
2022-08-19T07:43:17.329Z,83.59
2022-08-19T07:45:46.614Z,84.42
2022-08-19T07:48:13.700Z,81.72
2022-08-19T07:50:41.091Z,83.71
2022-08-19T07:53:08.411Z,80.52
2022-08-19T07:55:42.584Z,82.62
2022-08-19T07:58:14.110Z,82.60
2022-08-19T08:00:42.388Z,83.55
2022-08-19T08:03:09.807Z,82.24
2022-08-19T08:05:55.684Z,80.35
2022-08-19T08:08:44.456Z,77.65
2022-08-19T08:11:19.142Z,80.17
2022-08-19T08:14:01.107Z,80.08
2022-08-19T08:16:39.488Z,81.25
2022-08-19T08:19:14.821Z,78.37
2022-08-19T08:21:57.397Z,79.92
2022-08-19T08:24:28.782Z,77.53
2022-08-19T08:26:57.689Z,79.06
2022-08-19T08:29:26.692Z,76.34
2022-08-19T08:32:02.478Z,75.46
2022-08-19T08:34:29.454Z,76.67
2022-08-19T08:36:56.896Z,79.48
2022-08-19T08:39:24.120Z,80.15
2022-08-19T08:42:10.169Z,82.06
2022-08-19T08:45:08.106Z,80.95
2022-08-19T08:47:42.018Z,73.93
2022-08-19T08:50:23.809Z,79.11
2022-08-19T08:52:57.605Z,80.79
2022-08-19T08:55:36.402Z,80.52
2022-08-19T08:58:54.592Z,79.16
2022-08-19T09:01:23.383Z,79.83
2022-08-19T09:03:50.869Z,79.62
2022-08-19T09:07:26.242Z,78.61
2022-08-19T09:10:11.899Z,76.82
2022-08-19T09:13:13.337Z,76.00
2022-08-19T09:15:49.213Z,77.50
2022-08-19T09:18:19.457Z,78.86
2022-08-19T09:20:50.541Z,76.13
2022-08-19T09:23:17.782Z,77.91
2022-08-19T09:25:44.744Z,77.52
2022-08-19T09:28:15.185Z,75.31
2022-08-19T09:30:53.078Z,73.05
2022-08-19T09:33:20.662Z,75.68
2022-08-19T09:35:53.246Z,76.49
2022-08-19T09:38:22.124Z,71.32
2022-08-19T09:40:50.098Z,70.54
2022-08-19T09:43:27.773Z,70.74
2022-08-19T09:46:01.995Z,71.92
2022-08-19T09:48:29.042Z,73.63
2022-08-19T09:50:56.384Z,69.98
2022-08-19T09:53:25.588Z,74.33
2022-08-19T09:55:53.787Z,75.06
2022-08-19T09:58:24.750Z,76.16
2022-08-19T10:00:54.734Z,75.26
2022-08-19T10:03:22.140Z,76.06
2022-08-19T10:05:55.470Z,70.05
2022-08-19T10:08:49.935Z,70.33
2022-08-19T10:11:28.034Z,71.30
2022-08-19T10:14:06.601Z,70.68
2022-08-19T10:16:33.751Z,69.68
2022-08-19T10:19:06.642Z,69.15
2022-08-19T10:21:35.491Z,71.27
2022-08-19T10:24:06.293Z,71.22
2022-08-19T10:26:38.139Z,70.90
2022-08-19T10:29:09.457Z,70.46
2022-08-19T10:32:01.193Z,71.29
2022-08-19T10:34:27.798Z,69.15
2022-08-19T10:37:01.331Z,72.24
2022-08-19T10:39:32.877Z,70.67
2022-08-19T10:42:11.654Z,75.02
2022-08-19T10:44:39.139Z,76.50
2022-08-19T10:47:17.651Z,72.53
2022-08-19T10:50:12.700Z,74.34
2022-08-19T10:52:49.679Z,73.27
2022-08-19T10:55:42.754Z,75.01
2022-08-19T10:58:26.165Z,71.46
2022-08-19T11:00:57.243Z,69.00
2022-08-19T11:03:25.205Z,68.20
2022-08-19T11:06:03.970Z,67.87
2022-08-19T11:08:32.034Z,67.60
2022-08-19T11:11:03.800Z,67.83
2022-08-19T11:13:38.333Z,70.67
2022-08-19T11:16:17.225Z,69.14
2022-08-19T11:18:49.062Z,70.07
2022-08-19T11:21:26.662Z,69.12
2022-08-19T11:23:57.640Z,68.90
2022-08-19T11:26:25.954Z,64.27
2022-08-19T11:28:55.468Z,65.04
2022-08-19T11:31:31.651Z,65.53
2022-08-19T11:34:02.587Z,68.62
2022-08-19T11:36:30.206Z,65.60
2022-08-19T11:38:57.202Z,65.90
2022-08-19T11:41:26.014Z,64.05
2022-08-19T11:43:56.870Z,63.55
2022-08-19T11:46:31.340Z,67.48
2022-08-19T11:49:01.934Z,67.03
2022-08-19T11:51:30.015Z,65.05
2022-08-19T11:54:00.013Z,66.56
2022-08-19T11:56:28.642Z,66.86
2022-08-19T11:58:59.949Z,67.68
2022-08-19T12:01:27.890Z,66.20
2022-08-19T12:03:57.709Z,66.46
2022-08-19T12:06:33.428Z,67.98
2022-08-19T12:09:05.947Z,64.92
2022-08-19T12:11:34.656Z,69.69
2022-08-19T12:14:02.237Z,72.64
2022-08-19T12:16:32.959Z,72.80
2022-08-19T12:19:04.653Z,74.30
2022-08-19T12:21:35.914Z,74.75
2022-08-19T12:24:05.921Z,74.29
2022-08-19T12:26:34.122Z,75.45
2022-08-19T12:29:09.563Z,76.15
2022-08-19T12:31:36.498Z,76.42
2022-08-19T12:34:03.791Z,75.85
2022-08-19T12:36:30.797Z,75.61
2022-08-19T12:39:00.662Z,75.66
2022-08-19T12:41:27.875Z,76.78
2022-08-19T12:43:55.077Z,76.05
2022-08-19T12:46:23.736Z,75.04
2022-08-19T12:48:56.197Z,75.65
2022-08-19T12:51:23.341Z,76.40
2022-08-19T12:53:51.008Z,75.01
2022-08-19T12:56:23.067Z,72.72
2022-08-19T12:58:53.127Z,71.23
2022-08-19T13:01:22.966Z,73.09
2022-08-19T13:03:53.627Z,73.23
2022-08-19T13:06:21.432Z,75.08
2022-08-19T13:08:48.909Z,75.06
2022-08-19T13:11:20.172Z,74.11
2022-08-19T13:13:51.875Z,74.70
2022-08-19T13:16:21.090Z,75.77
2022-08-19T13:18:48.997Z,74.34
2022-08-19T13:21:16.546Z,74.60
2022-08-19T13:23:43.660Z,73.71
2022-08-19T13:26:13.467Z,71.86
2022-08-19T13:29:00.975Z,71.22
2022-08-19T13:31:50.368Z,71.88
2022-08-19T13:34:20.775Z,70.93
2022-08-19T13:36:48.165Z,72.55
2022-08-19T13:39:15.231Z,71.60
2022-08-19T13:41:51.011Z,73.43
2022-08-19T13:44:21.669Z,72.85
2022-08-19T13:46:54.249Z,72.63
2022-08-19T13:49:24.095Z,73.27
2022-08-19T13:51:51.225Z,71.06
2022-08-19T13:54:18.143Z,69.31
2022-08-19T13:56:46.654Z,68.15
2022-08-19T13:59:14.914Z,67.65
2022-08-19T14:01:42.386Z,66.86
2022-08-19T14:04:10.255Z,66.53
2022-08-19T14:06:37.595Z,66.57
2022-08-19T14:09:06.789Z,66.48
2022-08-19T14:11:33.750Z,66.86
2022-08-19T14:14:00.859Z,67.31
2022-08-19T14:16:28.420Z,66.83
2022-08-19T14:18:55.861Z,65.95
2022-08-19T14:21:25.379Z,66.21
2022-08-19T14:23:54.294Z,64.96
2022-08-19T14:26:23.339Z,68.08
2022-08-19T14:28:53.089Z,67.46
2022-08-19T14:31:22.318Z,68.50
2022-08-19T14:33:49.727Z,69.64
2022-08-19T14:36:18.010Z,70.53
2022-08-19T14:38:45.004Z,70.07
2022-08-19T14:41:23.045Z,71.12
2022-08-19T14:43:52.935Z,71.50
2022-08-19T14:46:26.233Z,70.81
2022-08-19T14:48:56.740Z,69.63
2022-08-19T14:51:27.521Z,70.55
2022-08-19T14:53:55.134Z,71.14
2022-08-19T14:56:26.876Z,70.99
2022-08-19T14:58:54.985Z,71.30
2022-08-19T15:01:26.183Z,71.01
2022-08-19T15:03:54.913Z,71.10
2022-08-19T15:06:24.441Z,70.01
2022-08-19T15:08:52.727Z,71.52
2022-08-19T15:11:23.926Z,71.66
2022-08-19T15:13:51.801Z,72.19
2022-08-19T15:16:20.773Z,72.98
2022-08-19T15:18:52.969Z,72.65
2022-08-19T15:21:26.552Z,72.79
2022-08-19T15:23:56.670Z,73.66
2022-08-19T15:26:24.104Z,74.75
2022-08-19T15:28:51.094Z,73.81
2022-08-19T15:31:28.225Z,73.06
2022-08-19T15:33:58.798Z,72.57
2022-08-19T15:36:27.941Z,72.11
2022-08-19T15:38:56.884Z,72.16
2022-08-19T15:41:28.328Z,72.17
2022-08-19T15:44:09.525Z,72.09
2022-08-19T15:46:40.366Z,72.32
2022-08-19T15:49:08.564Z,71.88
2022-08-19T15:51:37.308Z,71.81
2022-08-19T15:54:08.691Z,72.53
2022-08-19T15:56:57.544Z,71.02
2022-08-19T15:59:47.524Z,70.74
2022-08-19T16:02:37.159Z,70.95
2022-08-19T16:05:28.683Z,69.75
2022-08-19T16:07:57.223Z,69.36
2022-08-19T16:10:27.134Z,70.06
2022-08-19T16:12:58.719Z,70.82
2022-08-19T16:15:30.550Z,70.46
2022-08-19T16:17:59.121Z,70.34
2022-08-19T16:20:27.750Z,70.57
2022-08-19T16:22:58.434Z,70.84
2022-08-19T16:25:29.055Z,71.48
2022-08-19T16:28:06.352Z,71.13
2022-08-19T16:30:34.059Z,71.42
2022-08-19T16:33:01.185Z,71.30
2022-08-19T16:35:29.133Z,71.27
2022-08-19T16:37:56.485Z,71.39
2022-08-19T16:40:25.280Z,71.20
2022-08-19T16:42:53.581Z,71.89
2022-08-19T16:45:22.015Z,71.24
2022-08-19T16:47:49.092Z,71.46
2022-08-19T16:50:22.364Z,70.66
2022-08-19T16:53:01.248Z,72.09
2022-08-19T16:55:28.378Z,72.55
2022-08-19T16:57:55.493Z,70.69
2022-08-19T17:00:22.672Z,71.12
2022-08-19T17:02:49.817Z,69.17
2022-08-19T17:05:16.971Z,69.93
2022-08-19T17:07:44.729Z,70.23
2022-08-19T17:10:11.688Z,70.93
2022-08-19T17:12:38.968Z,70.83
2022-08-19T17:15:08.336Z,71.34
2022-08-19T17:17:37.436Z,70.04
2022-08-19T17:20:07.116Z,71.39
2022-08-19T17:22:36.855Z,71.21
2022-08-19T17:25:04.802Z,70.63
2022-08-19T17:27:32.590Z,71.25
2022-08-19T17:30:02.699Z,71.30
2022-08-19T17:32:33.178Z,72.18
2022-08-19T17:35:01.402Z,71.60
2022-08-19T17:37:28.386Z,71.42
2022-08-19T17:39:55.697Z,71.41
2022-08-19T17:42:22.931Z,70.75
2022-08-19T17:44:50.757Z,71.10
2022-08-19T17:47:19.522Z,71.73
2022-08-19T17:49:46.866Z,71.90
2022-08-19T17:52:14.094Z,72.16
2022-08-19T17:54:41.272Z,70.55
2022-08-19T17:57:08.455Z,71.05
2022-08-19T17:59:37.432Z,71.16
2022-08-19T18:02:10.199Z,71.42
2022-08-19T18:04:38.552Z,71.02
2022-08-19T18:07:06.287Z,71.24
2022-08-19T18:09:41.983Z,71.24
2022-08-19T18:12:16.324Z,71.64
2022-08-19T18:14:43.580Z,71.50
2022-08-19T18:17:14.329Z,71.62
2022-08-19T18:19:44.001Z,71.10
2022-08-19T18:22:36.524Z,71.62
2022-08-19T18:25:12.756Z,72.86
2022-08-19T18:27:40.184Z,73.30
2022-08-19T18:30:08.617Z,72.46
2022-08-19T18:32:38.726Z,72.74
2022-08-19T18:35:14.434Z,74.51
2022-08-19T18:37:43.960Z,74.21
2022-08-19T18:40:36.280Z,73.21
2022-08-19T18:43:23.076Z,70.86
2022-08-19T18:46:09.614Z,73.34
2022-08-19T18:48:56.483Z,72.30
2022-08-19T18:51:28.473Z,71.35
2022-08-19T18:53:58.727Z,70.82
2022-08-19T18:56:31.842Z,71.58
2022-08-19T18:59:00.652Z,72.30
2022-08-19T19:01:38.612Z,71.68
2022-08-19T19:04:12.144Z,71.50
2022-08-19T19:06:42.511Z,72.52
2022-08-19T19:09:13.712Z,73.79
2022-08-19T19:11:44.474Z,72.52
2022-08-19T19:14:32.737Z,75.42
2022-08-19T19:17:11.288Z,72.36
2022-08-19T19:19:42.470Z,71.98
2022-08-19T19:22:18.787Z,71.54
2022-08-19T19:24:45.943Z,72.55
2022-08-19T19:27:15.741Z,76.30
2022-08-19T19:29:43.563Z,75.35
2022-08-19T19:32:29.480Z,71.36
2022-08-19T19:34:57.481Z,72.95
2022-08-19T19:37:24.897Z,73.43
2022-08-19T19:39:52.376Z,76.69
2022-08-19T19:42:23.672Z,77.36
2022-08-19T19:44:53.695Z,75.36
2022-08-19T19:47:24.619Z,76.82
2022-08-19T19:50:13.186Z,76.59
2022-08-19T19:52:41.063Z,78.42
2022-08-19T19:55:09.909Z,76.27
2022-08-19T19:57:39.202Z,78.08
2022-08-19T20:00:08.633Z,77.93
2022-08-19T20:02:35.639Z,74.99
2022-08-19T20:05:02.609Z,74.19
2022-08-19T20:07:47.961Z,74.95
2022-08-19T20:10:15.099Z,75.80
2022-08-19T20:12:42.052Z,77.52
2022-08-19T20:15:09.584Z,79.02
2022-08-19T20:17:42.728Z,78.67
2022-08-19T20:20:15.633Z,77.55
2022-08-19T20:22:43.984Z,77.74
2022-08-19T20:25:14.334Z,78.71
2022-08-19T20:27:42.414Z,79.54
2022-08-19T20:30:19.416Z,78.34
2022-08-19T20:32:48.772Z,78.46
2022-08-19T20:35:21.663Z,79.65
2022-08-19T20:37:52.868Z,79.66
2022-08-19T20:40:23.197Z,77.92
2022-08-19T20:42:50.776Z,77.61
2022-08-19T20:45:33.709Z,77.77
2022-08-19T20:48:03.672Z,79.05
2022-08-19T20:50:35.083Z,78.78
2022-08-19T20:53:11.061Z,77.09
2022-08-19T20:55:38.393Z,76.15
2022-08-19T20:58:05.462Z,77.95
2022-08-19T21:00:33.480Z,76.81
2022-08-19T21:03:00.855Z,77.48
2022-08-19T21:05:30.522Z,75.67
2022-08-19T21:07:58.474Z,74.91
2022-08-19T21:10:26.429Z,75.70
2022-08-19T21:12:53.570Z,75.48
2022-08-19T21:15:21.030Z,75.88
2022-08-19T21:17:48.728Z,74.89
2022-08-19T21:20:16.530Z,74.92
2022-08-19T21:22:43.611Z,76.99
2022-08-19T21:25:11.677Z,78.81
2022-08-19T21:27:38.803Z,79.15
2022-08-19T21:30:06.933Z,78.86
2022-08-19T21:32:33.983Z,75.21
2022-08-19T21:35:02.164Z,74.38
2022-08-19T21:37:29.644Z,73.50
2022-08-19T21:39:56.752Z,75.29
2022-08-19T21:42:24.197Z,76.17
2022-08-19T21:44:51.811Z,78.06
2022-08-19T21:47:19.918Z,78.54
2022-08-19T21:49:47.131Z,75.39
2022-08-19T21:52:20.340Z,73.62
2022-08-19T21:54:47.439Z,74.20
2022-08-19T21:57:14.495Z,75.97
2022-08-19T21:59:43.941Z,78.28
2022-08-19T22:02:20.376Z,77.94
2022-08-19T22:04:50.947Z,76.68
2022-08-19T22:07:19.374Z,75.69
2022-08-19T22:09:49.312Z,76.12
2022-08-19T22:12:28.427Z,76.14
2022-08-19T22:14:57.363Z,74.56
2022-08-19T22:17:27.572Z,74.91
2022-08-19T22:19:56.812Z,77.38
2022-08-19T22:22:30.564Z,75.19
2022-08-19T22:25:43.246Z,73.78
2022-08-19T22:28:14.739Z,78.20
2022-08-19T22:30:48.862Z,77.65
2022-08-19T22:33:21.220Z,78.77
2022-08-19T22:35:49.005Z,79.60
2022-08-19T22:38:16.638Z,77.56
2022-08-19T22:40:47.404Z,78.22
2022-08-19T22:43:26.509Z,76.12
2022-08-19T22:45:55.580Z,74.25
2022-08-19T22:48:27.953Z,74.60
2022-08-19T22:51:15.447Z,75.07
2022-08-19T22:53:45.614Z,75.62
2022-08-19T22:56:15.708Z,74.69
2022-08-19T22:58:43.605Z,77.33
2022-08-19T23:01:13.009Z,77.39
2022-08-19T23:03:56.346Z,77.13
2022-08-19T23:06:23.676Z,75.86
2022-08-19T23:08:54.200Z,77.14
2022-08-19T23:11:21.957Z,78.22
2022-08-19T23:13:48.949Z,78.30
2022-08-19T23:16:15.961Z,75.42
2022-08-19T23:18:43.135Z,77.70
2022-08-19T23:21:10.261Z,78.36
2022-08-19T23:23:38.131Z,78.58
2022-08-19T23:26:11.650Z,77.33
2022-08-19T23:28:57.969Z,78.94
2022-08-19T23:31:26.874Z,77.10
2022-08-19T23:33:54.118Z,76.91
2022-08-19T23:36:22.685Z,79.13
2022-08-19T23:38:52.189Z,78.22
2022-08-19T23:41:22.259Z,76.55
2022-08-19T23:43:50.764Z,76.15
2022-08-19T23:46:27.416Z,75.68
2022-08-19T23:48:57.088Z,78.03
2022-08-19T23:51:26.577Z,78.48
2022-08-19T23:53:53.854Z,78.02
2022-08-19T23:56:21.617Z,78.58
2022-08-19T23:58:49.181Z,78.99
